Time;durP1;ratioP1;P1;durP2;ratioP2;P2;SDS_P1;SDS_P2;PMS_P1;PMS_P2;Temp;Humidity;BMP_temperature;BMP_pressure;BME280_temperature;BME280_humidity;BME280_pressure;Samples;Min_cycle;Max_cycle;Signal;HPM_P1;HPM_P2
2023/01/11 00:01:06;;;;;;;;;0.33;0.00;;;;;;;;5113289;27;45575;-74
2023/01/11 00:03:32;;;;;;;;;1.00;0.00;;;;;;;;5114832;27;45965;-75
2023/01/11 00:05:58;;;;;;;;;1.00;0.00;;;;;;;;5115337;27;45691;-74
2023/01/11 00:08:24;;;;;;;;;1.33;0.00;;;;;;;;5107767;27;45404;-74
2023/01/11 00:10:49;;;;;;;;;0.00;0.00;;;;;;;;5103886;27;45443;-74
2023/01/11 00:13:15;;;;;;;;;0.00;0.00;;;;;;;;5116818;27;46253;-74
2023/01/11 00:15:40;;;;;;;;;0.00;0.00;;;;;;;;5119225;27;45366;-75
2023/01/11 00:18:06;;;;;;;;;0.00;0.00;;;;;;;;5119714;27;45277;-74
2023/01/11 00:20:32;;;;;;;;;0.00;0.00;;;;;;;;5119980;27;45300;-74
2023/01/11 00:22:57;;;;;;;;;1.00;1.00;;;;;;;;5111200;27;45912;-74
2023/01/11 00:25:23;;;;;;;;;0.00;0.00;;;;;;;;5118369;27;45293;-74
2023/01/11 00:27:48;;;;;;;;;1.33;0.00;;;;;;;;5107063;27;45376;-75
2023/01/11 00:30:14;;;;;;;;;1.00;0.00;;;;;;;;5117051;27;45320;-74
2023/01/11 00:32:40;;;;;;;;;0.00;0.00;;;;;;;;5117838;27;46235;-75
2023/01/11 00:35:06;;;;;;;;;0.00;0.00;;;;;;;;5119440;27;45661;-74
2023/01/11 00:37:31;;;;;;;;;0.00;0.00;;;;;;;;5119394;27;45480;-75
2023/01/11 00:39:56;;;;;;;;;0.00;0.00;;;;;;;;5118381;27;45519;-75
2023/01/11 00:48:03;;;;;;;;;0.00;0.00;;;;;;;;5119143;27;45368;-74
2023/01/11 00:50:36;;;;;;;;;1.00;0.00;;;;;;;;5118072;27;45398;-75
2023/01/11 00:53:02;;;;;;;;;0.00;0.00;;;;;;;;5119042;27;46344;-74
2023/01/11 00:55:28;;;;;;;;;0.00;0.00;;;;;;;;5117933;27;45370;-74
2023/01/11 00:57:53;;;;;;;;;0.00;0.00;;;;;;;;5119356;27;45445;-74
2023/01/11 01:00:19;;;;;;;;;0.00;0.00;;;;;;;;5118534;27;45324;-74
2023/01/11 01:02:44;;;;;;;;;0.00;0.00;;;;;;;;5118075;27;46571;-74
2023/01/11 01:05:10;;;;;;;;;0.00;0.00;;;;;;;;5118807;27;45576;-74
2023/01/11 01:07:35;;;;;;;;;0.00;0.00;;;;;;;;5119188;27;45427;-73
2023/01/11 01:10:01;;;;;;;;;0.00;0.00;;;;;;;;5118837;27;45392;-74
2023/01/11 01:15:10;;;;;;;;;1.00;0.00;;;;;;;;5118495;27;45332;-74
2023/01/11 01:17:35;;;;;;;;;0.00;0.00;;;;;;;;5118967;27;45383;-74
2023/01/11 01:20:00;;;;;;;;;0.00;0.00;;;;;;;;5119169;27;45505;-74
2023/01/11 01:22:26;;;;;;;;;0.00;0.00;;;;;;;;5118493;27;46512;-74
2023/01/11 01:24:51;;;;;;;;;0.00;0.00;;;;;;;;5117298;27;45401;-74
2023/01/11 01:27:18;;;;;;;;;2.00;0.00;;;;;;;;5118406;27;45582;-74
2023/01/11 01:29:46;;;;;;;;;1.00;0.00;;;;;;;;5115685;27;45416;-74
2023/01/11 01:32:11;;;;;;;;;0.00;0.00;;;;;;;;5118164;27;45344;-75
2023/01/11 01:34:37;;;;;;;;;0.00;0.00;;;;;;;;5118461;27;45283;-74
2023/01/11 01:37:03;;;;;;;;;0.00;0.00;;;;;;;;5116906;27;45613;-74
2023/01/11 01:39:28;;;;;;;;;0.00;0.00;;;;;;;;5118091;27;45334;-73
2023/01/11 01:41:53;;;;;;;;;0.00;0.00;;;;;;;;5117056;27;46378;-74
2023/01/11 01:44:37;;;;;;;;;0.00;0.00;;;;;;;;5116861;27;45606;-74
2023/01/11 01:47:03;;;;;;;;;0.00;0.00;;;;;;;;5111691;27;45885;-74
2023/01/11 01:49:29;;;;;;;;;1.00;0.00;;;;;;;;5097879;27;45504;-74
2023/01/11 01:51:56;;;;;;;;;0.00;0.00;;;;;;;;5104826;27;45464;-72
2023/01/11 01:54:25;;;;;;;;;0.00;0.00;;;;;;;;5117077;27;45389;-76
2023/01/11 01:56:55;;;;;;;;;0.00;0.00;;;;;;;;5118347;27;45321;-73
2023/01/11 01:59:22;;;;;;;;;0.00;0.00;;;;;;;;5117839;27;45526;-75
2023/01/11 02:01:48;;;;;;;;;0.00;0.00;;;;;;;;5117656;27;45492;-76
2023/01/11 02:04:24;;;;;;;;;0.00;0.00;;;;;;;;5117979;27;45442;-75
2023/01/11 02:06:52;;;;;;;;;0.00;0.00;;;;;;;;5116690;27;45393;-75
2023/01/11 02:09:26;;;;;;;;;0.00;0.00;;;;;;;;5116811;27;45480;-74
2023/01/11 02:11:53;;;;;;;;;0.00;0.00;;;;;;;;5117544;27;45382;-75
2023/01/11 02:14:19;;;;;;;;;0.00;0.00;;;;;;;;5117972;27;45373;-76
2023/01/11 02:16:44;;;;;;;;;0.00;0.00;;;;;;;;5118026;27;45394;-76
2023/01/11 02:19:14;;;;;;;;;0.00;0.00;;;;;;;;5117487;27;45320;-75
2023/01/11 02:21:52;;;;;;;;;0.00;0.00;;;;;;;;5118021;27;46524;-73
2023/01/11 02:24:20;;;;;;;;;0.00;0.00;;;;;;;;5117973;27;45533;-75
2023/01/11 02:27:09;;;;;;;;;0.00;0.00;;;;;;;;5117704;27;45368;-73
2023/01/11 02:29:47;;;;;;;;;0.00;0.00;;;;;;;;5118140;27;45462;-76
2023/01/11 02:32:12;;;;;;;;;0.00;0.00;;;;;;;;5116805;27;48291;-73
2023/01/11 02:34:37;;;;;;;;;0.00;0.00;;;;;;;;5117597;27;45385;-73
2023/01/11 02:37:21;;;;;;;;;0.00;0.00;;;;;;;;5119721;27;45415;-72
2023/01/11 02:40:06;;;;;;;;;0.00;0.00;;;;;;;;5119292;27;45481;-75
2023/01/11 02:45:24;;;;;;;;;0.00;0.00;;;;;;;;5110373;27;45367;-75
2023/01/11 02:47:49;;;;;;;;;0.00;0.00;;;;;;;;5117097;27;45400;-76
2023/01/11 02:50:21;;;;;;;;;1.00;0.00;;;;;;;;5117525;27;45219;-75
2023/01/11 02:52:51;;;;;;;;;0.00;0.00;;;;;;;;5117084;27;46017;-75
2023/01/11 02:55:18;;;;;;;;;0.00;0.00;;;;;;;;5116075;27;45357;-75
2023/01/11 02:57:45;;;;;;;;;0.00;0.00;;;;;;;;5115410;27;45344;-75
2023/01/11 03:00:11;;;;;;;;;0.00;0.00;;;;;;;;5115812;27;45488;-75
2023/01/11 03:02:36;;;;;;;;;0.00;0.00;;;;;;;;5116676;27;45561;-76
2023/01/11 03:05:01;;;;;;;;;0.00;0.00;;;;;;;;5116903;27;45533;-75
2023/01/11 03:07:33;;;;;;;;;0.00;0.00;;;;;;;;5098888;27;45426;-76
2023/01/11 03:10:07;;;;;;;;;0.00;0.00;;;;;;;;5116942;27;45351;-76
2023/01/11 03:12:53;;;;;;;;;0.00;0.00;;;;;;;;5116364;27;47270;-75
2023/01/11 03:15:30;;;;;;;;;0.00;0.00;;;;;;;;5116725;27;45430;-76
2023/01/11 03:18:11;;;;;;;;;0.00;0.00;;;;;;;;5116770;27;45473;-76
2023/01/11 03:20:38;;;;;;;;;0.00;0.00;;;;;;;;5116420;27;45443;-72
2023/01/11 03:23:09;;;;;;;;;0.00;0.00;;;;;;;;5116499;27;45384;-75
2023/01/11 03:25:40;;;;;;;;;0.00;0.00;;;;;;;;5116624;27;45462;-76
2023/01/11 03:28:12;;;;;;;;;0.00;0.00;;;;;;;;5116779;27;45441;-76
2023/01/11 03:30:46;;;;;;;;;0.00;0.00;;;;;;;;5116604;27;45373;-75
2023/01/11 03:33:15;;;;;;;;;0.00;0.00;;;;;;;;5107704;27;45529;-76
2023/01/11 03:35:47;;;;;;;;;0.00;0.00;;;;;;;;5095959;27;45339;-76
2023/01/11 03:38:21;;;;;;;;;0.00;0.00;;;;;;;;5096094;27;45340;-76
2023/01/11 03:40:50;;;;;;;;;0.00;0.00;;;;;;;;5095787;27;45381;-76
2023/01/11 03:43:17;;;;;;;;;0.00;0.00;;;;;;;;5108034;27;47191;-75
2023/01/11 03:45:47;;;;;;;;;0.00;0.00;;;;;;;;5115226;27;45328;-75
2023/01/11 03:48:27;;;;;;;;;0.00;0.00;;;;;;;;5116958;27;45379;-75
2023/01/11 03:50:54;;;;;;;;;0.00;0.00;;;;;;;;5115228;27;45388;-75
2023/01/11 03:53:22;;;;;;;;;0.00;0.00;;;;;;;;5116138;27;45340;-75
2023/01/11 03:55:50;;;;;;;;;0.00;0.00;;;;;;;;5114783;27;45433;-75
2023/01/11 03:58:15;;;;;;;;;0.00;0.00;;;;;;;;5115578;27;45358;-75
2023/01/11 04:00:41;;;;;;;;;1.00;0.00;;;;;;;;5115835;27;45365;-75
2023/01/11 04:03:08;;;;;;;;;0.00;0.00;;;;;;;;5106957;27;46327;-75
2023/01/11 04:05:34;;;;;;;;;0.00;0.00;;;;;;;;5098593;27;45420;-76
2023/01/11 04:07:59;;;;;;;;;0.00;0.00;;;;;;;;5104673;27;45452;-76
2023/01/11 04:10:25;;;;;;;;;0.00;0.00;;;;;;;;5114896;27;45372;-76
2023/01/11 04:12:50;;;;;;;;;0.00;0.00;;;;;;;;5115668;27;45383;-76
2023/01/11 04:15:16;;;;;;;;;0.00;0.00;;;;;;;;5114228;27;45841;-75
2023/01/11 04:17:41;;;;;;;;;0.00;0.00;;;;;;;;5115682;27;45333;-75
2023/01/11 04:20:08;;;;;;;;;0.00;0.00;;;;;;;;5115180;27;45379;-74
2023/01/11 04:22:33;;;;;;;;;0.00;0.00;;;;;;;;5096899;27;48415;-74
2023/01/11 04:24:58;;;;;;;;;0.00;0.00;;;;;;;;5115831;27;45457;-74
2023/01/11 04:27:23;;;;;;;;;0.00;0.00;;;;;;;;5116143;27;45450;-74
2023/01/11 04:29:49;;;;;;;;;0.00;0.00;;;;;;;;5116001;27;45304;-74
2023/01/11 04:32:14;;;;;;;;;0.00;0.00;;;;;;;;5115623;27;46578;-74
2023/01/11 04:34:39;;;;;;;;;0.00;0.00;;;;;;;;5115776;27;45341;-74
2023/01/11 04:37:05;;;;;;;;;0.00;0.00;;;;;;;;5096790;27;45369;-74
2023/01/11 04:39:30;;;;;;;;;0.00;0.00;;;;;;;;5114235;27;45371;-73
2023/01/11 04:44:39;;;;;;;;;0.00;0.00;;;;;;;;5115180;27;45528;-75
2023/01/11 04:47:04;;;;;;;;;0.00;0.00;;;;;;;;5115407;27;45591;-75
2023/01/11 04:49:30;;;;;;;;;0.00;0.00;;;;;;;;5114494;27;45425;-75
2023/01/11 04:51:56;;;;;;;;;0.00;0.00;;;;;;;;5105072;27;45342;-76
2023/01/11 04:54:21;;;;;;;;;0.00;0.00;;;;;;;;5095169;27;45326;-77
2023/01/11 04:56:46;;;;;;;;;0.00;0.00;;;;;;;;5112386;27;45282;-75
2023/01/11 04:59:12;;;;;;;;;0.00;0.00;;;;;;;;5119328;27;45379;-75
2023/01/11 05:01:38;;;;;;;;;1.33;0.67;;;;;;;;5118978;27;46015;-75
2023/01/11 05:04:03;;;;;;;;;0.00;0.00;;;;;;;;5117650;27;45301;-76
2023/01/11 05:06:28;;;;;;;;;0.00;0.00;;;;;;;;5119060;27;45351;-76
2023/01/11 05:08:53;;;;;;;;;0.00;0.00;;;;;;;;5118804;27;45471;-75
2023/01/11 05:11:19;;;;;;;;;0.00;0.00;;;;;;;;5117263;27;46523;-76
2023/01/11 05:13:44;;;;;;;;;0.00;0.00;;;;;;;;5118880;27;45370;-75
2023/01/11 05:16:09;;;;;;;;;0.00;0.00;;;;;;;;5118930;27;45317;-75
2023/01/11 05:18:35;;;;;;;;;0.00;0.00;;;;;;;;5118356;27;45624;-77
2023/01/11 05:21:01;;;;;;;;;0.00;0.00;;;;;;;;5105414;27;46104;-75
2023/01/11 05:23:27;;;;;;;;;0.67;0.00;;;;;;;;5105783;27;45330;-75
2023/01/11 05:25:52;;;;;;;;;0.00;0.00;;;;;;;;5096709;27;45304;-77
2023/01/11 05:28:17;;;;;;;;;0.00;0.00;;;;;;;;5098258;27;45312;-75
2023/01/11 05:30:49;;;;;;;;;0.00;0.00;;;;;;;;5098038;27;45550;-76
2023/01/11 05:33:14;;;;;;;;;2.67;0.00;;;;;;;;5102005;27;45531;-76
2023/01/11 05:35:40;;;;;;;;;0.00;0.00;;;;;;;;5117133;27;45405;-75
2023/01/11 05:38:05;;;;;;;;;0.00;0.00;;;;;;;;5117391;27;45416;-76
2023/01/11 05:40:30;;;;;;;;;0.00;0.00;;;;;;;;5118662;27;46053;-75
2023/01/11 05:42:55;;;;;;;;;0.00;0.00;;;;;;;;5118696;27;45353;-76
2023/01/11 05:45:34;;;;;;;;;2.33;0.67;;;;;;;;5117742;27;45323;-76
2023/01/11 05:48:00;;;;;;;;;0.00;0.00;;;;;;;;5120403;27;45498;-76
2023/01/11 05:50:25;;;;;;;;;0.00;0.00;;;;;;;;5120245;27;45400;-76
2023/01/11 05:52:51;;;;;;;;;0.00;0.00;;;;;;;;5120243;27;45356;-75
2023/01/11 05:55:16;;;;;;;;;0.33;0.00;;;;;;;;5119703;27;45354;-76
2023/01/11 05:57:42;;;;;;;;;1.00;0.00;;;;;;;;5118604;27;45402;-76
2023/01/11 06:00:08;;;;;;;;;1.00;1.00;;;;;;;;5117803;27;46236;-76
2023/01/11 06:02:34;;;;;;;;;0.33;0.00;;;;;;;;5118033;27;45407;-77
2023/01/11 06:04:59;;;;;;;;;0.00;0.00;;;;;;;;5116540;27;45583;-77
2023/01/11 06:07:24;;;;;;;;;0.33;0.00;;;;;;;;5116225;27;45504;-76
2023/01/11 06:09:50;;;;;;;;;0.00;0.00;;;;;;;;5098400;27;46098;-75
2023/01/11 06:12:15;;;;;;;;;2.00;0.67;;;;;;;;5117305;27;45392;-76
2023/01/11 06:14:40;;;;;;;;;1.67;1.00;;;;;;;;5117690;27;45382;-75
2023/01/11 06:17:05;;;;;;;;;2.75;1.00;;;;;;;;5117166;27;45513;-76
2023/01/11 06:19:31;;;;;;;;;2.00;1.00;;;;;;;;5117267;27;46535;-77
2023/01/11 06:21:56;;;;;;;;;3.25;1.00;;;;;;;;5116431;27;45396;-76
2023/01/11 06:24:21;;;;;;;;;1.00;1.00;;;;;;;;5117752;27;45559;-76
2023/01/11 06:26:46;;;;;;;;;3.00;1.00;;;;;;;;5117729;27;45382;-76
2023/01/11 06:29:13;;;;;;;;;2.00;1.67;;;;;;;;5115968;27;47525;-77
2023/01/11 06:31:38;;;;;;;;;1.33;0.67;;;;;;;;5117447;27;45377;-76
2023/01/11 06:34:03;;;;;;;;;1.25;1.25;;;;;;;;5117116;27;45475;-76
2023/01/11 06:36:29;;;;;;;;;0.75;0.75;;;;;;;;5116315;27;45378;-76
2023/01/11 06:38:54;;;;;;;;;1.50;1.00;;;;;;;;5116882;27;45430;-76
2023/01/11 06:41:19;;;;;;;;;0.67;0.67;;;;;;;;5115656;27;45483;-77
2023/01/11 06:43:45;;;;;;;;;2.50;1.50;;;;;;;;5117496;27;45483;-76
2023/01/11 06:46:12;;;;;;;;;2.00;0.75;;;;;;;;5098841;27;45484;-77
2023/01/11 06:48:37;;;;;;;;;2.67;1.00;;;;;;;;5117021;27;45344;-77
2023/01/11 06:51:02;;;;;;;;;4.25;1.50;;;;;;;;5117136;27;45340;-77
2023/01/11 06:53:27;;;;;;;;;2.00;1.75;;;;;;;;5117157;27;45276;-77
2023/01/11 06:55:54;;;;;;;;;0.00;0.00;;;;;;;;5115862;27;45525;-76
2023/01/11 06:58:21;;;;;;;;;3.50;2.75;;;;;;;;5116938;27;45999;-76
2023/01/11 07:00:46;;;;;;;;;1.75;1.75;;;;;;;;5116148;27;45726;-76
2023/01/11 07:03:12;;;;;;;;;1.75;1.75;;;;;;;;5116144;27;45270;-75
2023/01/11 07:05:37;;;;;;;;;0.25;0.25;;;;;;;;5116926;27;45527;-76
2023/01/11 07:08:03;;;;;;;;;0.00;0.00;;;;;;;;5116925;27;45393;-77
2023/01/11 07:10:28;;;;;;;;;2.75;1.00;;;;;;;;5097881;27;45418;-76
2023/01/11 07:12:53;;;;;;;;;2.00;0.75;;;;;;;;5117532;27;45504;-76
2023/01/11 07:15:19;;;;;;;;;0.00;0.00;;;;;;;;5117284;27;45492;-76
2023/01/11 07:17:46;;;;;;;;;1.25;1.25;;;;;;;;5115098;27;47071;-76
2023/01/11 07:20:11;;;;;;;;;3.00;0.75;;;;;;;;5116549;27;45354;-76
2023/01/11 07:22:37;;;;;;;;;1.75;1.00;;;;;;;;5115585;27;46047;-76
2023/01/11 07:25:03;;;;;;;;;3.33;0.00;;;;;;;;5116344;27;45493;-77
2023/01/11 07:27:28;;;;;;;;;2.25;1.25;;;;;;;;5115437;27;47172;-76
2023/01/11 07:29:53;;;;;;;;;1.50;1.50;;;;;;;;5098079;27;45385;-76
2023/01/11 07:32:19;;;;;;;;;1.33;0.00;;;;;;;;5116434;27;45442;-76
2023/01/11 07:34:44;;;;;;;;;3.75;2.00;;;;;;;;5116711;27;45552;-76
2023/01/11 07:37:09;;;;;;;;;2.75;1.00;;;;;;;;5116444;27;45271;-76
2023/01/11 07:39:35;;;;;;;;;2.00;0.50;;;;;;;;5116816;27;45444;-77
2023/01/11 07:44:44;;;;;;;;;3.50;1.00;;;;;;;;5116304;27;45412;-77
2023/01/11 07:47:09;;;;;;;;;1.00;1.00;;;;;;;;5116119;27;45587;-77
2023/01/11 07:49:34;;;;;;;;;1.00;1.00;;;;;;;;5116551;27;45610;-77
2023/01/11 07:51:59;;;;;;;;;3.75;2.00;;;;;;;;5116495;27;45375;-76
2023/01/11 07:54:25;;;;;;;;;3.00;2.00;;;;;;;;5116249;27;45395;-76
2023/01/11 07:56:50;;;;;;;;;4.67;1.67;;;;;;;;5116089;27;45533;-77
2023/01/11 07:59:16;;;;;;;;;4.00;2.00;;;;;;;;5116519;27;45434;-77
2023/01/11 08:01:41;;;;;;;;;2.50;1.50;;;;;;;;5115157;27;45589;-77
2023/01/11 08:04:10;;;;;;;;;2.00;2.00;;;;;;;;5097895;27;45286;-77
2023/01/11 08:06:35;;;;;;;;;2.00;1.25;;;;;;;;5117214;27;45431;-76
2023/01/11 08:09:01;;;;;;;;;4.75;2.25;;;;;;;;5115026;27;45362;-76
2023/01/11 08:16:54;;;;;;;;;3.00;1.25;;;;;;;;5116014;27;45743;-77
2023/01/11 08:19:19;;;;;;;;;1.00;1.00;;;;;;;;5114774;27;45460;-77
2023/01/11 08:21:44;;;;;;;;;2.25;2.25;;;;;;;;5116379;27;45422;-77
2023/01/11 08:24:10;;;;;;;;;2.33;2.00;;;;;;;;5116275;27;45416;-77
2023/01/11 08:26:35;;;;;;;;;6.75;5.50;;;;;;;;5116044;27;46102;-78
2023/01/11 08:29:00;;;;;;;;;2.75;2.00;;;;;;;;5115863;27;45494;-77
2023/01/11 08:31:25;;;;;;;;;2.25;2.00;;;;;;;;5116353;27;45463;-77
2023/01/11 08:33:50;;;;;;;;;4.75;3.50;;;;;;;;5119809;27;45367;-77
2023/01/11 08:36:16;;;;;;;;;3.75;2.75;;;;;;;;5119541;27;46473;-78
2023/01/11 08:38:41;;;;;;;;;2.50;2.00;;;;;;;;5118286;27;45366;-77
2023/01/11 08:41:09;;;;;;;;;22.25;21.25;;;;;;;;5118247;27;45450;-77
2023/01/11 08:43:38;;;;;;;;;5.75;3.25;;;;;;;;5118818;27;45469;-77
2023/01/11 08:46:03;;;;;;;;;3.00;1.75;;;;;;;;5119665;27;46406;-78
2023/01/11 08:48:28;;;;;;;;;5.50;2.00;;;;;;;;5118412;27;45411;-77
2023/01/11 08:50:53;;;;;;;;;5.00;2.00;;;;;;;;5121395;27;45406;-77
2023/01/11 08:53:19;;;;;;;;;1.50;1.25;;;;;;;;5120567;27;45524;-77
2023/01/11 08:55:48;;;;;;;;;3.00;2.25;;;;;;;;5121397;27;45919;-77
2023/01/11 08:58:13;;;;;;;;;3.75;1.75;;;;;;;;5122131;27;45435;-77
2023/01/11 09:00:39;;;;;;;;;3.50;3.00;;;;;;;;5121908;27;45260;-77
2023/01/11 09:03:04;;;;;;;;;4.75;4.00;;;;;;;;5121667;27;45399;-78
2023/01/11 09:05:29;;;;;;;;;7.75;4.25;;;;;;;;5120505;27;46057;-77
2023/01/11 09:07:55;;;;;;;;;7.50;5.75;;;;;;;;5119102;27;45416;-77
2023/01/11 09:10:20;;;;;;;;;12.75;11.50;;;;;;;;5119271;27;45332;-76
2023/01/11 09:12:45;;;;;;;;;14.75;14.50;;;;;;;;5117304;27;45334;-77
2023/01/11 09:15:11;;;;;;;;;9.50;7.25;;;;;;;;5117469;27;46131;-77
2023/01/11 09:17:36;;;;;;;;;7.25;7.25;;;;;;;;5118763;27;45287;-77
2023/01/11 09:20:01;;;;;;;;;7.00;0.00;;;;;;;;5117610;27;45492;-78
2023/01/11 09:22:26;;;;;;;;;12.75;12.75;;;;;;;;5119006;27;45546;-78
2023/01/11 09:24:51;;;;;;;;;5.75;5.25;;;;;;;;5118872;27;45395;-77
2023/01/11 09:27:17;;;;;;;;;10.50;8.50;;;;;;;;5118215;27;45554;-77
2023/01/11 09:29:43;;;;;;;;;11.25;6.50;;;;;;;;5118958;27;45400;-77
2023/01/11 09:32:08;;;;;;;;;10.25;10.25;;;;;;;;5118498;27;45341;-77
2023/01/11 09:34:33;;;;;;;;;6.25;6.00;;;;;;;;5118411;27;46220;-77
2023/01/11 09:37:01;;;;;;;;;10.00;7.00;;;;;;;;5118651;27;45415;-77
2023/01/11 09:39:27;;;;;;;;;6.50;5.75;;;;;;;;5118505;27;45403;-77
2023/01/11 09:42:02;;;;;;;;;6.25;6.25;;;;;;;;5117986;27;45385;-77
2023/01/11 09:44:29;;;;;;;;;4.00;3.00;;;;;;;;5117957;27;46230;-77
2023/01/11 09:47:16;;;;;;;;;8.75;4.00;;;;;;;;5116848;27;45432;-77
2023/01/11 09:49:47;;;;;;;;;3.75;2.00;;;;;;;;5118474;27;45508;-77
2023/01/11 09:52:22;;;;;;;;;4.00;4.00;;;;;;;;5118491;27;45335;-77
2023/01/11 09:54:47;;;;;;;;;5.75;5.75;;;;;;;;5118201;27;46319;-76
2023/01/11 09:57:18;;;;;;;;;12.25;8.50;;;;;;;;5117996;27;45473;-77
2023/01/11 09:59:51;;;;;;;;;35.75;33.50;;;;;;;;5125350;27;45454;-77
2023/01/11 10:02:39;;;;;;;;;15.75;14.75;;;;;;;;5138963;27;45597;-77
2023/01/11 10:05:22;;;;;;;;;7.25;4.50;;;;;;;;5138693;27;45510;-78
2023/01/11 10:08:04;;;;;;;;;6.00;4.00;;;;;;;;5137404;27;46377;-75
2023/01/11 10:10:50;;;;;;;;;2.50;2.00;;;;;;;;5138181;27;45372;-76
2023/01/11 10:13:29;;;;;;;;;1.25;0.50;;;;;;;;5116538;27;45626;-77
2023/01/11 10:16:04;;;;;;;;;2.00;2.00;;;;;;;;5117752;27;46080;-76
2023/01/11 10:18:49;;;;;;;;;1.25;1.00;;;;;;;;5117651;27;45584;-77
2023/01/11 10:21:34;;;;;;;;;0.50;0.00;;;;;;;;5117540;27;45378;-77
2023/01/11 10:24:19;;;;;;;;;2.00;1.00;;;;;;;;5116142;27;45365;-77
2023/01/11 10:26:46;;;;;;;;;2.25;2.00;;;;;;;;5117179;27;45427;-77
2023/01/11 10:35:12;;;;;;;;;1.00;0.00;;;;;;;;5074200;28;45372;-77
2023/01/11 10:38:31;;;;;;;;;1.00;1.00;;;;;;;;5074120;27;45422;-77
2023/01/11 10:41:01;;;;;;;;;1.00;1.00;;;;;;;;5062632;27;45606;-76
2023/01/11 10:43:24;;;;;;;;;2.25;2.25;;;;;;;;5073561;27;45420;-76
2023/01/11 10:45:54;;;;;;;;;4.25;2.75;;;;;;;;5073837;28;45497;-76
2023/01/11 10:48:39;;;;;;;;;3.00;3.00;;;;;;;;5073682;27;46422;-76
2023/01/11 10:51:10;;;;;;;;;0.75;0.75;;;;;;;;5073809;27;45494;-77
2023/01/11 10:53:38;;;;;;;;;2.50;1.00;;;;;;;;5073701;28;45455;-76
2023/01/11 10:56:15;;;;;;;;;3.00;3.00;;;;;;;;5090200;27;45519;-76
2023/01/11 10:58:54;;;;;;;;;3.75;2.50;;;;;;;;5073317;28;46124;-77
2023/01/11 11:01:31;;;;;;;;;44.25;34.25;;;;;;;;5073167;27;45500;-76
2023/01/11 11:04:08;;;;;;;;;17.00;15.75;;;;;;;;5073372;28;45504;-76
2023/01/11 11:06:36;;;;;;;;;18.00;18.00;;;;;;;;5073672;28;45332;-76
2023/01/11 11:09:06;;;;;;;;;5.75;3.50;;;;;;;;5073221;28;46227;-76
2023/01/11 11:11:32;;;;;;;;;1.50;1.50;;;;;;;;5090586;27;45603;-77
2023/01/11 11:14:06;;;;;;;;;6.50;6.25;;;;;;;;5114587;27;45711;-77
2023/01/11 11:16:50;;;;;;;;;4.00;4.00;;;;;;;;5115820;27;45509;-76
2023/01/11 11:19:18;;;;;;;;;14.50;12.75;;;;;;;;5112529;27;45437;-77
2023/01/11 11:21:44;;;;;;;;;15.25;14.75;;;;;;;;5115533;27;45339;-76
2023/01/11 11:24:16;;;;;;;;;4.25;4.25;;;;;;;;5116431;27;45434;-77
2023/01/11 11:26:43;;;;;;;;;5.75;3.25;;;;;;;;5132254;27;45666;-76
2023/01/11 11:29:10;;;;;;;;;2.25;1.25;;;;;;;;5119104;27;45636;-76
2023/01/11 11:31:40;;;;;;;;;5.75;5.75;;;;;;;;5129554;27;45527;-76
2023/01/11 11:34:16;;;;;;;;;4.50;3.50;;;;;;;;5127157;27;45289;-76
2023/01/11 11:36:45;;;;;;;;;9.75;9.00;;;;;;;;5119770;27;45532;-76
2023/01/11 11:39:10;;;;;;;;;8.25;6.25;;;;;;;;5132608;27;45407;-77
2023/01/11 11:41:52;;;;;;;;;15.00;7.00;;;;;;;;5122464;27;45351;-76
2023/01/11 11:44:18;;;;;;;;;14.25;13.00;;;;;;;;5123906;27;45316;-76
2023/01/11 11:47:03;;;;;;;;;5.75;4.00;;;;;;;;5132471;27;45324;-76
2023/01/11 11:49:30;;;;;;;;;6.25;4.00;;;;;;;;5105031;27;47870;-77
2023/01/11 11:51:57;;;;;;;;;14.50;12.75;;;;;;;;5136226;27;45602;-76
2023/01/11 11:54:30;;;;;;;;;4.00;4.00;;;;;;;;5123641;27;45392;-75
2023/01/11 11:56:57;;;;;;;;;5.00;5.00;;;;;;;;5132643;27;45537;-76
2023/01/11 11:59:24;;;;;;;;;1.00;0.67;;;;;;;;5116083;27;47947;-75
2023/01/11 12:01:58;;;;;;;;;5.00;3.00;;;;;;;;5122662;27;45402;-76
2023/01/11 12:04:36;;;;;;;;;3.75;3.75;;;;;;;;5122475;27;45558;-76
2023/01/11 12:07:06;;;;;;;;;1.67;0.00;;;;;;;;5127434;27;45502;-75
2023/01/11 12:09:33;;;;;;;;;1.25;1.25;;;;;;;;5122308;27;46132;-74
2023/01/11 12:11:58;;;;;;;;;2.00;0.00;;;;;;;;5121840;27;45466;-76
2023/01/11 12:14:28;;;;;;;;;1.00;1.00;;;;;;;;5121950;27;45452;-74
2023/01/11 12:16:53;;;;;;;;;1.33;1.00;;;;;;;;5118895;27;45646;-75
2023/01/11 12:19:37;;;;;;;;;1.00;1.00;;;;;;;;5119735;27;46042;-75
2023/01/11 12:22:10;;;;;;;;;6.00;6.00;;;;;;;;5118163;27;45407;-75
2023/01/11 12:24:35;;;;;;;;;9.25;6.50;;;;;;;;5119919;27;45464;-75
2023/01/11 12:27:03;;;;;;;;;8.00;6.75;;;;;;;;5119610;27;45431;-75
2023/01/11 12:29:45;;;;;;;;;4.00;4.00;;;;;;;;5119278;27;45353;-77
2023/01/11 12:32:19;;;;;;;;;45.25;38.75;;;;;;;;5119323;27;45409;-74
2023/01/11 12:34:47;;;;;;;;;6.50;5.25;;;;;;;;5119733;27;45490;-75
2023/01/11 12:37:31;;;;;;;;;7.75;4.25;;;;;;;;5117977;27;45540;-75
2023/01/11 12:40:06;;;;;;;;;5.75;3.25;;;;;;;;5111160;27;47445;-75
2023/01/11 12:42:44;;;;;;;;;3.25;3.25;;;;;;;;5109666;27;45611;-75
2023/01/11 12:45:41;;;;;;;;;5.00;3.25;;;;;;;;5122385;27;45443;-75
2023/01/11 12:48:15;;;;;;;;;2.75;2.00;;;;;;;;5041719;28;45556;-75
2023/01/11 12:50:47;;;;;;;;;3.25;3.25;;;;;;;;5051051;28;45422;-74
2023/01/11 12:53:23;;;;;;;;;5.00;4.00;;;;;;;;5040274;28;45469;-75
2023/01/11 12:56:07;;;;;;;;;8.00;4.50;;;;;;;;5026737;28;45711;-74
2023/01/11 12:58:38;;;;;;;;;3.00;2.00;;;;;;;;5035029;28;45544;-75
2023/01/11 13:01:22;;;;;;;;;2.67;1.67;;;;;;;;5034788;28;45710;-75
2023/01/11 13:03:47;;;;;;;;;6.00;4.00;;;;;;;;5035144;28;45449;-75
2023/01/11 13:06:22;;;;;;;;;14.25;11.75;;;;;;;;5035159;28;45915;-74
2023/01/11 13:08:48;;;;;;;;;20.00;19.00;;;;;;;;5035200;28;45444;-75
2023/01/11 13:11:35;;;;;;;;;7.50;7.50;;;;;;;;5034596;28;46236;-75
2023/01/11 13:14:12;;;;;;;;;10.50;9.50;;;;;;;;5017932;28;45745;-75
2023/01/11 13:16:42;;;;;;;;;11.50;10.25;;;;;;;;5018229;28;45349;-75
2023/01/11 13:19:17;;;;;;;;;5.00;5.00;;;;;;;;5034300;28;45487;-73
2023/01/11 13:21:52;;;;;;;;;4.75;4.75;;;;;;;;5017896;28;45745;-75
2023/01/11 13:24:24;;;;;;;;;11.25;11.25;;;;;;;;5095747;27;45344;-74
2023/01/11 13:26:50;;;;;;;;;2.33;2.33;;;;;;;;5117375;27;45584;-74
2023/01/11 13:29:17;;;;;;;;;4.00;3.00;;;;;;;;5118802;27;45182;-75
2023/01/11 13:31:45;;;;;;;;;1.67;1.67;;;;;;;;5118482;27;45988;-74
2023/01/11 13:34:21;;;;;;;;;3.00;0.00;;;;;;;;5118222;27;45423;-74
2023/01/11 13:36:50;;;;;;;;;4.00;1.50;;;;;;;;5118509;27;45460;-74
2023/01/11 13:39:21;;;;;;;;;4.00;3.25;;;;;;;;5118565;27;45230;-74
2023/01/11 13:41:49;;;;;;;;;0.33;0.00;;;;;;;;5118489;27;45357;-75
2023/01/11 13:44:24;;;;;;;;;3.00;3.00;;;;;;;;5117141;27;45354;-75
2023/01/11 13:47:08;;;;;;;;;8.50;8.50;;;;;;;;5118492;27;45427;-74
2023/01/11 13:49:37;;;;;;;;;5.00;2.00;;;;;;;;5118288;27;45380;-75
2023/01/11 13:52:09;;;;;;;;;8.00;4.75;;;;;;;;5116971;27;47458;-75
2023/01/11 13:54:40;;;;;;;;;4.25;1.50;;;;;;;;5118155;27;45404;-74
2023/01/11 13:57:09;;;;;;;;;5.75;3.00;;;;;;;;5118175;27;45540;-74
2023/01/11 13:59:43;;;;;;;;;3.50;2.00;;;;;;;;5118387;27;45518;-74
2023/01/11 14:02:27;;;;;;;;;5.50;1.75;;;;;;;;5117940;27;46168;-74
2023/01/11 14:05:09;;;;;;;;;3.50;2.25;;;;;;;;5118080;27;45489;-75
2023/01/11 14:07:41;;;;;;;;;0.00;0.00;;;;;;;;5118302;27;45343;-75
2023/01/11 14:10:09;;;;;;;;;2.00;2.00;;;;;;;;5117703;27;45283;-75
2023/01/11 14:12:40;;;;;;;;;0.00;0.00;;;;;;;;5117909;27;46488;-73
2023/01/11 14:15:18;;;;;;;;;0.00;0.00;;;;;;;;5117601;27;45294;-74
2023/01/11 14:18:04;;;;;;;;;4.75;4.75;;;;;;;;5117707;27;45461;-75
2023/01/11 14:20:48;;;;;;;;;2.67;2.00;;;;;;;;5117987;27;45432;-75
2023/01/11 14:23:18;;;;;;;;;0.00;0.00;;;;;;;;5117567;27;46388;-75
2023/01/11 14:26:01;;;;;;;;;2.33;1.00;;;;;;;;5117674;27;45321;-75
2023/01/11 14:28:45;;;;;;;;;1.00;1.00;;;;;;;;5117371;27;45381;-75
2023/01/11 14:31:30;;;;;;;;;2.00;0.00;;;;;;;;5117001;27;45442;-74
2023/01/11 14:34:01;;;;;;;;;2.00;1.00;;;;;;;;5056836;28;47798;-75
2023/01/11 14:36:32;;;;;;;;;1.75;1.75;;;;;;;;5074334;27;45395;-73
2023/01/11 14:38:57;;;;;;;;;4.00;3.00;;;;;;;;5073883;28;45461;-75
2023/01/11 14:41:45;;;;;;;;;0.00;0.00;;;;;;;;5074649;28;45399;-74
2023/01/11 14:44:23;;;;;;;;;0.50;0.00;;;;;;;;5072435;27;46165;-74
2023/01/11 14:47:07;;;;;;;;;0.67;0.67;;;;;;;;5073624;28;45367;-73
2023/01/11 14:49:41;;;;;;;;;2.00;0.00;;;;;;;;5074416;27;45562;-73
2023/01/11 14:52:13;;;;;;;;;2.00;1.00;;;;;;;;5056634;28;45444;-73
2023/01/11 14:54:41;;;;;;;;;0.67;0.00;;;;;;;;5073874;27;45538;-74
2023/01/11 14:57:26;;;;;;;;;0.00;0.00;;;;;;;;5073720;28;45276;-74
2023/01/11 14:59:51;;;;;;;;;0.67;0.67;;;;;;;;5073929;27;45361;-75
2023/01/11 15:02:22;;;;;;;;;1.00;0.00;;;;;;;;5073978;27;45332;-76
2023/01/11 15:04:50;;;;;;;;;1.00;1.00;;;;;;;;5074062;28;45775;-74
2023/01/11 15:07:27;;;;;;;;;1.50;0.50;;;;;;;;5056777;28;45359;-74
2023/01/11 15:09:52;;;;;;;;;1.50;1.50;;;;;;;;5074992;27;45442;-76
2023/01/11 15:12:18;;;;;;;;;0.50;0.50;;;;;;;;5117275;27;45455;-73
2023/01/11 15:14:47;;;;;;;;;1.00;1.00;;;;;;;;5117026;27;46264;-75
2023/01/11 15:20:10;;;;;;;;;2.00;2.00;;;;;;;;5097704;27;45350;-75
2023/01/11 15:22:35;;;;;;;;;0.00;0.00;;;;;;;;5098382;27;45573;-76
2023/01/11 15:25:03;;;;;;;;;3.75;2.75;;;;;;;;5096516;27;45505;-75